sensor_id;sensor_type;location;lat;lon;timestamp;pressure;altitude;pressure_sealevel;temperature;humidity
74960;BME280;63518;49.572;1.106;2023-02-18T00:01:37;100790.00;;;8.60;83.70
74960;BME280;63518;49.572;1.106;2023-02-18T00:04:05;100733.69;;;8.45;83.36
74960;BME280;63518;49.572;1.106;2023-02-18T00:06:35;100764.88;;;8.79;82.59
74960;BME280;63518;49.572;1.106;2023-02-18T00:09:04;100744.50;;;8.52;83.74
74960;BME280;63518;49.572;1.106;2023-02-18T00:11:33;100784.00;;;8.74;82.50
74960;BME280;63518;49.572;1.106;2023-02-18T00:14:03;100779.31;;;8.87;82.82
74960;BME280;63518;49.572;1.106;2023-02-18T00:16:31;100742.59;;;8.52;83.46
74960;BME280;63518;49.572;1.106;2023-02-18T00:19:01;100777.34;;;8.58;83.98
74960;BME280;63518;49.572;1.106;2023-02-18T00:21:32;100751.84;;;8.46;83.54
74960;BME280;63518;49.572;1.106;2023-02-18T00:24:04;100737.56;;;8.61;84.99
74960;BME280;63518;49.572;1.106;2023-02-18T00:26:32;100768.75;;;8.95;82.93
74960;BME280;63518;49.572;1.106;2023-02-18T00:28:59;100753.53;;;8.76;83.63
74960;BME280;63518;49.572;1.106;2023-02-18T00:31:34;100762.63;;;8.65;84.22
74960;BME280;63518;49.572;1.106;2023-02-18T00:34:03;100755.81;;;8.39;85.96
74960;BME280;63518;49.572;1.106;2023-02-18T00:36:31;100745.16;;;8.42;85.94
74960;BME280;63518;49.572;1.106;2023-02-18T00:39:03;100758.69;;;8.61;84.50
74960;BME280;63518;49.572;1.106;2023-02-18T00:41:31;100760.78;;;8.82;85.13
74960;BME280;63518;49.572;1.106;2023-02-18T00:43:59;100751.00;;;8.86;84.76
74960;BME280;63518;49.572;1.106;2023-02-18T00:46:27;100745.19;;;8.59;84.03
74960;BME280;63518;49.572;1.106;2023-02-18T00:48:56;100753.19;;;8.72;85.83
74960;BME280;63518;49.572;1.106;2023-02-18T00:51:25;100752.97;;;8.62;83.91
74960;BME280;63518;49.572;1.106;2023-02-18T00:53:53;100759.00;;;8.47;85.68
74960;BME280;63518;49.572;1.106;2023-02-18T00:56:20;100742.28;;;8.37;85.55
74960;BME280;63518;49.572;1.106;2023-02-18T00:58:50;100724.13;;;8.48;84.99
74960;BME280;63518;49.572;1.106;2023-02-18T01:01:19;100752.72;;;8.64;85.20
74960;BME280;63518;49.572;1.106;2023-02-18T01:03:47;100749.28;;;8.56;84.49
74960;BME280;63518;49.572;1.106;2023-02-18T01:06:16;100758.03;;;8.53;85.89
74960;BME280;63518;49.572;1.106;2023-02-18T01:08:44;100742.56;;;8.64;84.96
74960;BME280;63518;49.572;1.106;2023-02-18T01:11:12;100753.44;;;8.59;85.68
74960;BME280;63518;49.572;1.106;2023-02-18T01:13:41;100747.47;;;8.62;85.04
74960;BME280;63518;49.572;1.106;2023-02-18T01:16:09;100704.25;;;8.17;85.06
74960;BME280;63518;49.572;1.106;2023-02-18T01:18:38;100738.19;;;8.51;84.78
74960;BME280;63518;49.572;1.106;2023-02-18T01:21:07;100743.97;;;8.67;85.21
74960;BME280;63518;49.572;1.106;2023-02-18T01:23:37;100747.69;;;8.61;85.22
74960;BME280;63518;49.572;1.106;2023-02-18T01:26:05;100740.47;;;8.43;85.91
74960;BME280;63518;49.572;1.106;2023-02-18T01:28:34;100741.31;;;8.43;85.55
74960;BME280;63518;49.572;1.106;2023-02-18T01:31:07;100742.06;;;8.39;87.00
74960;BME280;63518;49.572;1.106;2023-02-18T01:33:35;100738.22;;;8.40;85.15
74960;BME280;63518;49.572;1.106;2023-02-18T01:36:07;100726.72;;;8.54;86.62
74960;BME280;63518;49.572;1.106;2023-02-18T01:38:35;100746.81;;;8.43;85.36
74960;BME280;63518;49.572;1.106;2023-02-18T01:41:04;100734.03;;;8.49;85.59
74960;BME280;63518;49.572;1.106;2023-02-18T01:43:31;100731.66;;;8.41;86.33
74960;BME280;63518;49.572;1.106;2023-02-18T01:46:03;100734.56;;;8.63;86.63
74960;BME280;63518;49.572;1.106;2023-02-18T01:48:37;100734.66;;;8.39;86.80
74960;BME280;63518;49.572;1.106;2023-02-18T01:51:22;100738.22;;;8.40;86.20
74960;BME280;63518;49.572;1.106;2023-02-18T01:56:31;100722.22;;;8.37;86.86
74960;BME280;63518;49.572;1.106;2023-02-18T01:59:05;100727.31;;;8.56;84.62
74960;BME280;63518;49.572;1.106;2023-02-18T02:01:35;100735.16;;;8.65;85.76
74960;BME280;63518;49.572;1.106;2023-02-18T02:04:03;100706.59;;;8.66;84.16
74960;BME280;63518;49.572;1.106;2023-02-18T02:06:31;100717.25;;;8.62;85.26
74960;BME280;63518;49.572;1.106;2023-02-18T02:09:02;100724.59;;;8.85;84.86
74960;BME280;63518;49.572;1.106;2023-02-18T02:17:21;100709.41;;;8.54;84.28
74960;BME280;63518;49.572;1.106;2023-02-18T02:23:19;100695.38;;;8.39;84.77
74960;BME280;63518;49.572;1.106;2023-02-18T02:34:29;100705.22;;;8.51;85.22
74960;BME280;63518;49.572;1.106;2023-02-18T02:42:25;100701.66;;;8.79;82.04
74960;BME280;63518;49.572;1.106;2023-02-18T02:45:06;100700.31;;;8.82;82.88
74960;BME280;63518;49.572;1.106;2023-02-18T02:47:55;100682.16;;;8.24;84.55
74960;BME280;63518;49.572;1.106;2023-02-18T02:53:04;100685.25;;;8.56;83.23
74960;BME280;63518;49.572;1.106;2023-02-18T02:55:34;100676.19;;;8.55;82.96
74960;BME280;63518;49.572;1.106;2023-02-18T02:58:02;100660.19;;;8.24;84.13
74960;BME280;63518;49.572;1.106;2023-02-18T03:00:40;100682.00;;;8.59;83.42
74960;BME280;63518;49.572;1.106;2023-02-18T03:06:35;100670.78;;;8.32;84.97
74960;BME280;63518;49.572;1.106;2023-02-18T03:12:11;100664.03;;;8.23;82.94
74960;BME280;63518;49.572;1.106;2023-02-18T03:17:31;100681.00;;;8.77;82.47
74960;BME280;63518;49.572;1.106;2023-02-18T03:20:18;100673.50;;;8.61;82.52
74960;BME280;63518;49.572;1.106;2023-02-18T03:22:50;100677.44;;;8.36;83.90
74960;BME280;63518;49.572;1.106;2023-02-18T03:25:19;100665.72;;;8.41;82.71
74960;BME280;63518;49.572;1.106;2023-02-18T03:28:00;100662.06;;;8.52;82.40
74960;BME280;63518;49.572;1.106;2023-02-18T03:30:35;100686.22;;;8.50;82.27
74960;BME280;63518;49.572;1.106;2023-02-18T03:33:10;100669.84;;;8.55;82.12
74960;BME280;63518;49.572;1.106;2023-02-18T03:35:41;100643.06;;;8.34;82.65
74960;BME280;63518;49.572;1.106;2023-02-18T03:38:34;100680.47;;;8.51;83.50
74960;BME280;63518;49.572;1.106;2023-02-18T03:41:03;100672.84;;;8.53;81.27
74960;BME280;63518;49.572;1.106;2023-02-18T03:43:34;100668.50;;;8.57;81.44
74960;BME280;63518;49.572;1.106;2023-02-18T03:46:02;100676.31;;;8.49;82.62
74960;BME280;63518;49.572;1.106;2023-02-18T03:48:30;100657.31;;;8.76;80.43
74960;BME280;63518;49.572;1.106;2023-02-18T03:50:57;100650.38;;;8.56;82.03
74960;BME280;63518;49.572;1.106;2023-02-18T03:53:25;100670.44;;;8.57;81.90
74960;BME280;63518;49.572;1.106;2023-02-18T03:55:55;100651.50;;;8.15;82.51
74960;BME280;63518;49.572;1.106;2023-02-18T03:58:22;100681.94;;;8.54;81.97
74960;BME280;63518;49.572;1.106;2023-02-18T04:00:51;100640.91;;;8.36;82.22
74960;BME280;63518;49.572;1.106;2023-02-18T04:03:20;100645.97;;;8.27;83.25
74960;BME280;63518;49.572;1.106;2023-02-18T04:05:47;100674.72;;;8.53;82.48
74960;BME280;63518;49.572;1.106;2023-02-18T04:08:15;100664.78;;;8.64;81.76
74960;BME280;63518;49.572;1.106;2023-02-18T04:10:42;100666.16;;;8.49;82.83
74960;BME280;63518;49.572;1.106;2023-02-18T04:13:10;100656.38;;;8.70;81.31
74960;BME280;63518;49.572;1.106;2023-02-18T04:15:37;100656.59;;;8.80;81.72
74960;BME280;63518;49.572;1.106;2023-02-18T04:18:05;100652.50;;;8.83;80.89
74960;BME280;63518;49.572;1.106;2023-02-18T04:20:32;100665.63;;;8.64;82.29
74960;BME280;63518;49.572;1.106;2023-02-18T04:23:00;100657.13;;;8.66;82.05
74960;BME280;63518;49.572;1.106;2023-02-18T04:25:27;100642.25;;;8.33;81.42
74960;BME280;63518;49.572;1.106;2023-02-18T04:27:55;100664.34;;;8.55;83.01
74960;BME280;63518;49.572;1.106;2023-02-18T04:30:22;100674.94;;;8.63;82.17
74960;BME280;63518;49.572;1.106;2023-02-18T04:32:50;100640.03;;;8.18;82.01
74960;BME280;63518;49.572;1.106;2023-02-18T04:35:18;100677.69;;;8.63;82.71
74960;BME280;63518;49.572;1.106;2023-02-18T04:37:46;100663.25;;;8.39;83.32
74960;BME280;63518;49.572;1.106;2023-02-18T04:40:14;100664.50;;;8.48;82.10
74960;BME280;63518;49.572;1.106;2023-02-18T04:42:41;100659.34;;;8.23;83.03
74960;BME280;63518;49.572;1.106;2023-02-18T04:45:08;100673.31;;;8.50;81.66
74960;BME280;63518;49.572;1.106;2023-02-18T04:47:36;100640.31;;;8.34;82.08
74960;BME280;63518;49.572;1.106;2023-02-18T04:50:04;100660.69;;;8.66;82.24
74960;BME280;63518;49.572;1.106;2023-02-18T04:52:32;100637.44;;;8.40;81.16
74960;BME280;63518;49.572;1.106;2023-02-18T04:55:04;100653.63;;;8.53;82.43
74960;BME280;63518;49.572;1.106;2023-02-18T04:57:32;100646.53;;;8.29;82.63
74960;BME280;63518;49.572;1.106;2023-02-18T04:59:59;100651.28;;;8.45;83.13
74960;BME280;63518;49.572;1.106;2023-02-18T05:02:27;100652.59;;;8.14;83.24
74960;BME280;63518;49.572;1.106;2023-02-18T05:04:54;100663.59;;;8.60;83.04
74960;BME280;63518;49.572;1.106;2023-02-18T05:07:22;100655.06;;;8.44;81.68
74960;BME280;63518;49.572;1.106;2023-02-18T05:09:49;100652.56;;;8.43;81.36
74960;BME280;63518;49.572;1.106;2023-02-18T05:12:17;100663.19;;;8.68;81.27
74960;BME280;63518;49.572;1.106;2023-02-18T05:14:45;100638.38;;;8.46;81.70
74960;BME280;63518;49.572;1.106;2023-02-18T05:17:12;100655.72;;;8.35;81.71
74960;BME280;63518;49.572;1.106;2023-02-18T05:19:39;100665.25;;;8.61;82.95
74960;BME280;63518;49.572;1.106;2023-02-18T05:22:07;100653.28;;;8.67;82.09
74960;BME280;63518;49.572;1.106;2023-02-18T05:24:35;100650.03;;;8.24;82.55
74960;BME280;63518;49.572;1.106;2023-02-18T05:27:02;100657.31;;;8.31;80.89
74960;BME280;63518;49.572;1.106;2023-02-18T05:29:30;100664.22;;;8.33;82.44
74960;BME280;63518;49.572;1.106;2023-02-18T05:31:57;100646.00;;;8.44;83.07
74960;BME280;63518;49.572;1.106;2023-02-18T05:34:25;100647.44;;;8.46;80.41
74960;BME280;63518;49.572;1.106;2023-02-18T05:36:52;100623.91;;;8.22;81.65
74960;BME280;63518;49.572;1.106;2023-02-18T05:39:20;100657.31;;;8.31;81.55
74960;BME280;63518;49.572;1.106;2023-02-18T05:41:47;100647.44;;;8.18;80.83
74960;BME280;63518;49.572;1.106;2023-02-18T05:44:14;100657.44;;;8.24;81.82
74960;BME280;63518;49.572;1.106;2023-02-18T05:47:04;100639.53;;;8.21;80.46
74960;BME280;63518;49.572;1.106;2023-02-18T05:49:33;100644.47;;;8.36;79.27
74960;BME280;63518;49.572;1.106;2023-02-18T05:52:01;100649.28;;;8.57;79.50
74960;BME280;63518;49.572;1.106;2023-02-18T05:54:30;100638.66;;;8.33;79.99
74960;BME280;63518;49.572;1.106;2023-02-18T05:56:58;100638.88;;;8.60;78.03
74960;BME280;63518;49.572;1.106;2023-02-18T05:59:25;100615.69;;;8.39;79.13
74960;BME280;63518;49.572;1.106;2023-02-18T06:01:52;100630.44;;;8.78;78.34
74960;BME280;63518;49.572;1.106;2023-02-18T06:04:21;100615.28;;;8.30;79.11
74960;BME280;63518;49.572;1.106;2023-02-18T06:06:48;100607.34;;;8.62;78.42
74960;BME280;63518;49.572;1.106;2023-02-18T06:09:16;100615.56;;;8.45;79.53
74960;BME280;63518;49.572;1.106;2023-02-18T06:11:43;100608.09;;;8.29;80.01
74960;BME280;63518;49.572;1.106;2023-02-18T06:14:11;100619.13;;;8.17;80.58
74960;BME280;63518;49.572;1.106;2023-02-18T06:16:38;100611.50;;;8.36;78.47
74960;BME280;63518;49.572;1.106;2023-02-18T06:19:06;100620.59;;;8.37;78.92
74960;BME280;63518;49.572;1.106;2023-02-18T06:21:33;100608.78;;;8.53;78.65
74960;BME280;63518;49.572;1.106;2023-02-18T06:24:01;100591.94;;;8.16;79.61
74960;BME280;63518;49.572;1.106;2023-02-18T06:26:29;100614.25;;;8.36;78.89
74960;BME280;63518;49.572;1.106;2023-02-18T06:28:57;100585.06;;;8.01;79.25
74960;BME280;63518;49.572;1.106;2023-02-18T06:31:24;100601.81;;;8.45;79.22
74960;BME280;63518;49.572;1.106;2023-02-18T06:33:54;100583.63;;;8.27;79.98
74960;BME280;63518;49.572;1.106;2023-02-18T06:36:21;100607.44;;;8.22;79.70
74960;BME280;63518;49.572;1.106;2023-02-18T06:38:49;100617.09;;;8.24;80.05
74960;BME280;63518;49.572;1.106;2023-02-18T06:41:16;100614.38;;;8.41;78.35
74960;BME280;63518;49.572;1.106;2023-02-18T06:43:43;100613.94;;;8.33;79.85
74960;BME280;63518;49.572;1.106;2023-02-18T06:46:11;100606.56;;;8.50;78.88
74960;BME280;63518;49.572;1.106;2023-02-18T06:48:38;100615.78;;;8.44;79.18
74960;BME280;63518;49.572;1.106;2023-02-18T06:51:06;100603.50;;;8.63;78.70
74960;BME280;63518;49.572;1.106;2023-02-18T06:53:34;100604.78;;;8.44;80.28
74960;BME280;63518;49.572;1.106;2023-02-18T06:56:01;100622.50;;;8.36;80.47
74960;BME280;63518;49.572;1.106;2023-02-18T06:58:29;100629.84;;;8.31;80.00
74960;BME280;63518;49.572;1.106;2023-02-18T07:00:57;100624.53;;;8.57;79.30
74960;BME280;63518;49.572;1.106;2023-02-18T07:03:24;100607.66;;;8.66;78.07
74960;BME280;63518;49.572;1.106;2023-02-18T07:05:52;100626.44;;;8.40;80.00
74960;BME280;63518;49.572;1.106;2023-02-18T07:08:21;100639.78;;;8.65;78.62
74960;BME280;63518;49.572;1.106;2023-02-18T07:10:49;100624.03;;;8.61;78.54
74960;BME280;63518;49.572;1.106;2023-02-18T07:13:16;100634.38;;;8.53;78.98
74960;BME280;63518;49.572;1.106;2023-02-18T07:15:44;100632.53;;;8.59;79.92
74960;BME280;63518;49.572;1.106;2023-02-18T07:18:12;100617.00;;;8.36;80.20
74960;BME280;63518;49.572;1.106;2023-02-18T07:20:39;100635.16;;;8.37;79.63
74960;BME280;63518;49.572;1.106;2023-02-18T07:23:09;100620.53;;;8.48;80.46
74960;BME280;63518;49.572;1.106;2023-02-18T07:25:38;100624.81;;;8.56;78.45
74960;BME280;63518;49.572;1.106;2023-02-18T07:28:05;100635.50;;;8.41;79.38
74960;BME280;63518;49.572;1.106;2023-02-18T07:30:33;100620.94;;;8.12;79.67
74960;BME280;63518;49.572;1.106;2023-02-18T07:33:01;100612.25;;;8.15;81.07
74960;BME280;63518;49.572;1.106;2023-02-18T07:35:30;100637.72;;;8.27;79.65
74960;BME280;63518;49.572;1.106;2023-02-18T07:37:58;100650.59;;;8.38;80.82
74960;BME280;63518;49.572;1.106;2023-02-18T07:40:26;100628.00;;;8.36;79.43
74960;BME280;63518;49.572;1.106;2023-02-18T07:42:53;100654.00;;;8.45;79.63
74960;BME280;63518;49.572;1.106;2023-02-18T07:45:21;100644.41;;;8.31;80.78
74960;BME280;63518;49.572;1.106;2023-02-18T07:47:48;100640.66;;;8.37;80.28
74960;BME280;63518;49.572;1.106;2023-02-18T07:50:16;100628.41;;;8.28;79.04
74960;BME280;63518;49.572;1.106;2023-02-18T07:52:44;100642.41;;;8.43;79.71
74960;BME280;63518;49.572;1.106;2023-02-18T07:55:11;100650.19;;;8.18;80.95
74960;BME280;63518;49.572;1.106;2023-02-18T07:57:39;100603.38;;;8.13;79.80
74960;BME280;63518;49.572;1.106;2023-02-18T08:00:23;100650.75;;;8.48;79.68
74960;BME280;63518;49.572;1.106;2023-02-18T08:02:52;100652.63;;;8.31;79.98
74960;BME280;63518;49.572;1.106;2023-02-18T08:05:20;100650.50;;;8.50;78.18
74960;BME280;63518;49.572;1.106;2023-02-18T08:07:50;100653.63;;;8.25;80.58
74960;BME280;63518;49.572;1.106;2023-02-18T08:10:18;100656.13;;;8.26;79.89
74960;BME280;63518;49.572;1.106;2023-02-18T08:12:45;100677.66;;;8.46;79.20
74960;BME280;63518;49.572;1.106;2023-02-18T08:15:12;100669.59;;;8.56;78.22
74960;BME280;63518;49.572;1.106;2023-02-18T08:17:40;100677.25;;;8.54;78.16
74960;BME280;63518;49.572;1.106;2023-02-18T08:20:08;100687.81;;;8.74;77.48
74960;BME280;63518;49.572;1.106;2023-02-18T08:22:38;100657.19;;;8.54;78.81
74960;BME280;63518;49.572;1.106;2023-02-18T08:25:06;100647.69;;;8.16;77.64
74960;BME280;63518;49.572;1.106;2023-02-18T08:27:34;100651.84;;;8.47;76.23
74960;BME280;63518;49.572;1.106;2023-02-18T08:30:02;100678.13;;;8.43;77.12
74960;BME280;63518;49.572;1.106;2023-02-18T08:32:31;100686.09;;;8.85;75.70
74960;BME280;63518;49.572;1.106;2023-02-18T08:34:58;100656.06;;;8.38;76.63
74960;BME280;63518;49.572;1.106;2023-02-18T08:37:30;100682.94;;;8.93;77.18
74960;BME280;63518;49.572;1.106;2023-02-18T08:40:17;100672.56;;;8.83;75.40
74960;BME280;63518;49.572;1.106;2023-02-18T08:42:48;100650.78;;;8.94;74.65
74960;BME280;63518;49.572;1.106;2023-02-18T08:45:15;100674.22;;;8.84;75.92
74960;BME280;63518;49.572;1.106;2023-02-18T08:47:43;100681.66;;;8.84;76.83
74960;BME280;63518;49.572;1.106;2023-02-18T08:50:31;100679.41;;;8.81;76.25
74960;BME280;63518;49.572;1.106;2023-02-18T08:52:58;100661.00;;;8.98;76.76
74960;BME280;63518;49.572;1.106;2023-02-18T08:55:30;100697.09;;;9.35;75.43
74960;BME280;63518;49.572;1.106;2023-02-18T08:57:59;100706.50;;;9.23;76.07
74960;BME280;63518;49.572;1.106;2023-02-18T09:00:27;100698.09;;;9.12;76.82
74960;BME280;63518;49.572;1.106;2023-02-18T09:02:57;100704.59;;;9.06;78.20
74960;BME280;63518;49.572;1.106;2023-02-18T09:05:24;100708.75;;;9.43;77.46
74960;BME280;63518;49.572;1.106;2023-02-18T09:07:52;100675.59;;;8.99;75.96
74960;BME280;63518;49.572;1.106;2023-02-18T09:10:19;100695.19;;;9.36;75.50
74960;BME280;63518;49.572;1.106;2023-02-18T09:12:47;100693.16;;;9.31;76.20
74960;BME280;63518;49.572;1.106;2023-02-18T09:15:14;100700.16;;;9.39;76.51
74960;BME280;63518;49.572;1.106;2023-02-18T09:17:42;100700.00;;;9.46;76.07
74960;BME280;63518;49.572;1.106;2023-02-18T09:20:10;100694.78;;;9.10;76.09
74960;BME280;63518;49.572;1.106;2023-02-18T09:22:38;100695.19;;;9.36;75.53
74960;BME280;63518;49.572;1.106;2023-02-18T09:25:05;100702.34;;;9.20;76.39
74960;BME280;63518;49.572;1.106;2023-02-18T09:27:34;100682.56;;;9.40;74.94
74960;BME280;63518;49.572;1.106;2023-02-18T09:30:01;100695.91;;;9.31;76.17
74960;BME280;63518;49.572;1.106;2023-02-18T09:32:29;100697.25;;;9.12;76.72
74960;BME280;63518;49.572;1.106;2023-02-18T09:35:03;100688.50;;;9.32;74.92
74960;BME280;63518;49.572;1.106;2023-02-18T09:37:31;100685.91;;;9.08;76.56
74960;BME280;63518;49.572;1.106;2023-02-18T09:39:58;100698.25;;;9.06;76.80
74960;BME280;63518;49.572;1.106;2023-02-18T09:42:33;100701.16;;;9.16;75.62
74960;BME280;63518;49.572;1.106;2023-02-18T09:45:05;100703.75;;;9.23;76.10
74960;BME280;63518;49.572;1.106;2023-02-18T09:47:38;100681.84;;;8.94;76.32
74960;BME280;63518;49.572;1.106;2023-02-18T09:50:19;100700.34;;;9.16;76.25
74960;BME280;63518;49.572;1.106;2023-02-18T09:52:48;100711.69;;;9.19;74.64
74960;BME280;63518;49.572;1.106;2023-02-18T09:55:27;100700.81;;;9.46;75.19
74960;BME280;63518;49.572;1.106;2023-02-18T09:57:57;100707.19;;;9.30;75.42
74960;BME280;63518;49.572;1.106;2023-02-18T10:00:35;100713.59;;;9.19;75.04
74960;BME280;63518;49.572;1.106;2023-02-18T10:03:15;100709.25;;;9.23;76.46
74960;BME280;63518;49.572;1.106;2023-02-18T10:06:04;100707.41;;;9.45;76.28
74960;BME280;63518;49.572;1.106;2023-02-18T10:08:44;100693.09;;;9.43;76.64
74960;BME280;63518;49.572;1.106;2023-02-18T10:11:42;100706.31;;;9.46;75.65
74960;BME280;63518;49.572;1.106;2023-02-18T10:14:11;100696.97;;;9.47;75.37
74960;BME280;63518;49.572;1.106;2023-02-18T10:16:42;100698.31;;;9.61;75.52
74960;BME280;63518;49.572;1.106;2023-02-18T10:19:32;100703.75;;;9.56;76.70
74960;BME280;63518;49.572;1.106;2023-02-18T10:22:03;100708.59;;;9.49;76.34
74960;BME280;63518;49.572;1.106;2023-02-18T10:24:44;100649.00;;;9.21;75.97
74960;BME280;63518;49.572;1.106;2023-02-18T10:27:20;100700.97;;;9.73;76.77
74960;BME280;63518;49.572;1.106;2023-02-18T10:29:50;100665.94;;;9.68;74.12
74960;BME280;63518;49.572;1.106;2023-02-18T10:38:08;100704.25;;;9.53;76.18
74960;BME280;63518;49.572;1.106;2023-02-18T10:41:08;100702.84;;;9.51;76.68
74960;BME280;63518;49.572;1.106;2023-02-18T10:44:13;100714.47;;;9.75;74.71
74960;BME280;63518;49.572;1.106;2023-02-18T10:49:46;100712.00;;;9.39;77.33
74960;BME280;63518;49.572;1.106;2023-02-18T10:52:17;100704.06;;;9.60;74.79
74960;BME280;63518;49.572;1.106;2023-02-18T10:57:24;100687.81;;;9.58;75.29
74960;BME280;63518;49.572;1.106;2023-02-18T11:02:45;100690.09;;;9.28;75.44
74960;BME280;63518;49.572;1.106;2023-02-18T11:05:24;100715.50;;;9.52;75.58
74960;BME280;63518;49.572;1.106;2023-02-18T11:07:55;100720.88;;;9.25;76.77
74960;BME280;63518;49.572;1.106;2023-02-18T11:10:25;100723.19;;;9.33;76.94
74960;BME280;63518;49.572;1.106;2023-02-18T11:12:55;100719.00;;;9.64;75.35
74960;BME280;63518;49.572;1.106;2023-02-18T11:15:25;100726.41;;;9.63;76.00
74960;BME280;63518;49.572;1.106;2023-02-18T11:20:54;100714.22;;;9.76;75.31
74960;BME280;63518;49.572;1.106;2023-02-18T11:23:22;100708.44;;;9.78;75.07
74960;BME280;63518;49.572;1.106;2023-02-18T11:26:03;100709.41;;;9.66;73.81
74960;BME280;63518;49.572;1.106;2023-02-18T11:31:11;100716.63;;;10.11;73.83
74960;BME280;63518;49.572;1.106;2023-02-18T11:33:43;100713.81;;;10.06;74.47
74960;BME280;63518;49.572;1.106;2023-02-18T11:36:34;100718.06;;;9.75;76.67
74960;BME280;63518;49.572;1.106;2023-02-18T11:41:56;100706.91;;;9.87;75.20
74960;BME280;63518;49.572;1.106;2023-02-18T11:44:31;100688.78;;;9.69;74.84
74960;BME280;63518;49.572;1.106;2023-02-18T11:47:03;100702.00;;;9.89;74.04
74960;BME280;63518;49.572;1.106;2023-02-18T11:49:33;100702.31;;;9.54;75.40
74960;BME280;63518;49.572;1.106;2023-02-18T11:52:17;100708.22;;;9.62;75.42
74960;BME280;63518;49.572;1.106;2023-02-18T11:55:04;100699.66;;;9.59;75.89
74960;BME280;63518;49.572;1.106;2023-02-18T11:57:41;100687.91;;;9.85;74.68
74960;BME280;63518;49.572;1.106;2023-02-18T12:02:51;100697.81;;;9.64;76.21
74960;BME280;63518;49.572;1.106;2023-02-18T12:05:23;100699.31;;;9.72;75.01
74960;BME280;63518;49.572;1.106;2023-02-18T12:07:57;100698.56;;;10.20;73.94
74960;BME280;63518;49.572;1.106;2023-02-18T12:10:29;100695.59;;;9.83;74.03
74960;BME280;63518;49.572;1.106;2023-02-18T12:13:21;100692.69;;;10.12;74.60
74960;BME280;63518;49.572;1.106;2023-02-18T12:16:34;100699.81;;;10.57;73.22
74960;BME280;63518;49.572;1.106;2023-02-18T12:27:22;100697.41;;;10.16;73.86
74960;BME280;63518;49.572;1.106;2023-02-18T12:46:48;100670.56;;;10.29;73.84
74960;BME280;63518;49.572;1.106;2023-02-18T12:57:33;100666.94;;;10.50;73.06
74960;BME280;63518;49.572;1.106;2023-02-18T13:11:45;100653.75;;;10.52;72.98
74960;BME280;63518;49.572;1.106;2023-02-18T13:14:22;100651.38;;;10.93;72.02
74960;BME280;63518;49.572;1.106;2023-02-18T13:16:53;100626.69;;;11.13;70.68
74960;BME280;63518;49.572;1.106;2023-02-18T13:19:35;100643.78;;;10.46;74.13
74960;BME280;63518;49.572;1.106;2023-02-18T13:22:11;100623.69;;;11.15;70.61
74960;BME280;63518;49.572;1.106;2023-02-18T13:24:44;100638.06;;;10.52;71.50
74960;BME280;63518;49.572;1.106;2023-02-18T13:27:41;100633.91;;;11.19;70.46
74960;BME280;63518;49.572;1.106;2023-02-18T13:40:41;100626.47;;;10.29;73.19
74960;BME280;63518;49.572;1.106;2023-02-18T13:46:08;100624.97;;;10.70;73.23
74960;BME280;63518;49.572;1.106;2023-02-18T13:51:14;100621.44;;;10.74;73.42
74960;BME280;63518;49.572;1.106;2023-02-18T13:53:43;100617.78;;;10.15;75.48
74960;BME280;63518;49.572;1.106;2023-02-18T13:58:51;100622.19;;;10.38;74.80
74960;BME280;63518;49.572;1.106;2023-02-18T14:01:40;100618.59;;;10.37;76.21
74960;BME280;63518;49.572;1.106;2023-02-18T14:10:06;100604.41;;;9.58;78.87
74960;BME280;63518;49.572;1.106;2023-02-18T14:26:23;100598.41;;;10.10;77.68
74960;BME280;63518;49.572;1.106;2023-02-18T14:28:56;100581.09;;;9.87;79.49
74960;BME280;63518;49.572;1.106;2023-02-18T14:36:38;100586.31;;;10.11;78.77
74960;BME280;63518;49.572;1.106;2023-02-18T14:39:38;100578.94;;;9.89;80.14
74960;BME280;63518;49.572;1.106;2023-02-18T14:48:34;100565.66;;;9.86;79.94
74960;BME280;63518;49.572;1.106;2023-02-18T14:51:08;100546.66;;;9.63;80.99
74960;BME280;63518;49.572;1.106;2023-02-18T14:53:42;100578.75;;;9.96;79.76
74960;BME280;63518;49.572;1.106;2023-02-18T14:56:15;100543.25;;;9.78;80.37
74960;BME280;63518;49.572;1.106;2023-02-18T14:58:54;100564.06;;;9.90;81.05
74960;BME280;63518;49.572;1.106;2023-02-18T15:01:32;100569.97;;;9.77;82.08
74960;BME280;63518;49.572;1.106;2023-02-18T15:04:01;100536.00;;;9.45;81.10
74960;BME280;63518;49.572;1.106;2023-02-18T15:06:32;100550.25;;;9.63;81.09
74960;BME280;63518;49.572;1.106;2023-02-18T15:11:46;100548.72;;;9.73;80.65
74960;BME280;63518;49.572;1.106;2023-02-18T15:14:21;100557.28;;;9.98;81.04
74960;BME280;63518;49.572;1.106;2023-02-18T15:16:49;100557.94;;;10.10;80.87
74960;BME280;63518;49.572;1.106;2023-02-18T15:19:22;100536.03;;;9.72;80.96
74960;BME280;63518;49.572;1.106;2023-02-18T15:21:53;100557.28;;;9.76;81.39
74960;BME280;63518;49.572;1.106;2023-02-18T15:24:32;100558.91;;;9.72;81.30
74960;BME280;63518;49.572;1.106;2023-02-18T15:27:24;100541.94;;;9.58;83.21
74960;BME280;63518;49.572;1.106;2023-02-18T15:29:58;100550.66;;;9.50;81.23
74960;BME280;63518;49.572;1.106;2023-02-18T15:32:31;100527.28;;;9.53;81.95
74960;BME280;63518;49.572;1.106;2023-02-18T15:35:01;100559.91;;;9.44;82.85
74960;BME280;63518;49.572;1.106;2023-02-18T15:37:30;100543.63;;;9.86;81.74
74960;BME280;63518;49.572;1.106;2023-02-18T15:39:58;100548.84;;;9.61;82.59
74960;BME280;63518;49.572;1.106;2023-02-18T15:42:30;100542.25;;;9.40;82.82
74960;BME280;63518;49.572;1.106;2023-02-18T15:45:13;100545.66;;;9.08;83.70
74960;BME280;63518;49.572;1.106;2023-02-18T15:47:47;100543.78;;;9.31;84.07
74960;BME280;63518;49.572;1.106;2023-02-18T15:50:19;100542.69;;;9.10;83.42
74960;BME280;63518;49.572;1.106;2023-02-18T15:52:48;100550.09;;;9.09;83.13
74960;BME280;63518;49.572;1.106;2023-02-18T15:58:02;100544.91;;;9.13;82.68
74960;BME280;63518;49.572;1.106;2023-02-18T16:00:32;100549.81;;;9.28;83.28
74960;BME280;63518;49.572;1.106;2023-02-18T16:03:02;100553.13;;;9.30;82.64
74960;BME280;63518;49.572;1.106;2023-02-18T16:05:30;100553.00;;;9.20;83.20